Time;durP1;ratioP1;P1;durP2;ratioP2;P2;SDS_P1;SDS_P2;PMS_P1;PMS_P2;Temp;Humidity;BMP_temperature;BMP_pressure;BME280_temperature;BME280_humidity;BME280_pressure;Samples;Min_cycle;Max_cycle;Signal;HPM_P1;HPM_P2
2023/01/21 00:01:16;;;;;;;9.20;7.47;;;2.20;95.10;;;;;;5074246;28;20190;-90
2023/01/21 00:03:42;;;;;;;8.13;7.33;;;2.20;94.80;;;;;;5063429;28;20251;-90
2023/01/21 00:06:08;;;;;;;8.40;7.30;;;2.20;95.10;;;;;;5062692;28;20186;-90
2023/01/21 00:08:34;;;;;;;7.23;6.53;;;2.10;94.30;;;;;;5063757;28;20223;-90
2023/01/21 00:11:26;;;;;;;7.43;6.07;;;2.10;94.50;;;;;;5083523;28;20352;-89
2023/01/21 00:13:51;;;;;;;6.73;5.67;;;2.30;90.60;;;;;;5080183;28;20221;-90
2023/01/21 00:16:17;;;;;;;8.80;5.90;;;2.20;89.30;;;;;;5068515;28;20214;-89
2023/01/21 00:18:43;;;;;;;7.30;6.13;;;2.20;89.90;;;;;;5096492;28;20202;-92
2023/01/21 00:21:08;;;;;;;6.37;5.23;;;2.30;91.10;;;;;;5098465;28;20294;-91
2023/01/21 00:23:34;;;;;;;7.80;6.17;;;2.30;91.30;;;;;;5098329;28;20190;-91
2023/01/21 00:26:03;;;;;;;7.47;6.77;;;2.40;90.60;;;;;;5079532;28;20180;-93
2023/01/21 00:28:33;;;;;;;7.27;6.57;;;2.40;90.00;;;;;;5085265;28;20543;-89
2023/01/21 00:31:05;;;;;;;7.97;7.17;;;2.30;91.20;;;;;;5082449;28;20190;-90
2023/01/21 00:33:31;;;;;;;8.20;7.40;;;2.20;91.90;;;;;;5083059;28;20428;-89
2023/01/21 00:36:01;;;;;;;7.73;6.47;;;2.20;92.80;;;;;;5081712;28;20199;-90
2023/01/21 00:38:27;;;;;;;9.17;6.60;;;2.10;92.50;;;;;;5082629;28;20267;-89
2023/01/21 00:40:59;;;;;;;8.20;6.37;;;2.10;93.40;;;;;;5082284;28;20572;-89
2023/01/21 00:43:24;;;;;;;6.93;6.23;;;2.10;93.70;;;;;;5081795;28;20160;-89
2023/01/21 00:45:50;;;;;;;6.83;6.07;;;2.00;93.90;;;;;;5080422;28;20196;-89
2023/01/21 00:48:16;;;;;;;6.43;5.83;;;2.00;94.10;;;;;;5081224;28;20316;-89
2023/01/21 00:50:41;;;;;;;6.80;6.10;;;1.90;95.40;;;;;;5080575;28;20184;-89
2023/01/21 00:53:07;;;;;;;5.87;5.27;;;2.00;95.80;;;;;;5081461;28;20190;-90
2023/01/21 00:55:33;;;;;;;5.83;4.77;;;2.00;95.60;;;;;;5062735;28;20275;-90
2023/01/21 00:57:58;;;;;;;6.80;4.63;;;1.90;96.50;;;;;;5066227;28;20227;-89
2023/01/21 01:00:24;;;;;;;4.60;4.07;;;1.90;97.10;;;;;;5061788;28;20191;-91
2023/01/21 01:02:50;;;;;;;4.67;4.10;;;1.90;97.20;;;;;;5076617;28;20207;-89
2023/01/21 01:05:15;;;;;;;5.00;4.20;;;1.80;96.70;;;;;;5090134;28;20231;-93
2023/01/21 01:07:42;;;;;;;4.93;4.40;;;1.90;97.00;;;;;;5076458;28;20204;-92
2023/01/21 01:10:09;;;;;;;4.67;4.10;;;2.00;96.60;;;;;;5076505;28;20177;-92
2023/01/21 01:12:35;;;;;;;4.27;3.87;;;1.90;95.90;;;;;;5076232;28;20164;-91
2023/01/21 01:15:00;;;;;;;5.30;4.10;;;2.00;95.80;;;;;;5062575;28;20234;-89
2023/01/21 01:17:26;;;;;;;5.20;4.50;;;2.10;94.70;;;;;;5072434;28;20210;-89
2023/01/21 01:19:52;;;;;;;6.93;5.70;;;2.10;94.90;;;;;;5081673;28;20199;-89
2023/01/21 01:22:18;;;;;;;5.60;4.93;;;2.20;93.70;;;;;;5081427;28;20175;-89
2023/01/21 01:24:44;;;;;;;4.77;4.37;;;2.20;93.30;;;;;;5081653;28;20168;-89
2023/01/21 01:27:09;;;;;;;6.37;4.60;;;2.30;93.20;;;;;;5081963;28;20204;-89
2023/01/21 01:29:35;;;;;;;6.37;5.30;;;2.30;92.20;;;;;;5059615;28;20222;-89
2023/01/21 01:32:01;;;;;;;6.17;5.53;;;2.30;92.00;;;;;;5079365;28;20758;-89
2023/01/21 01:34:26;;;;;;;5.80;5.20;;;2.30;91.40;;;;;;5080512;28;20172;-90
2023/01/21 01:36:52;;;;;;;7.23;6.00;;;2.30;93.70;;;;;;5079713;28;20207;-89
2023/01/21 01:39:18;;;;;;;6.20;5.43;;;2.40;90.30;;;;;;5080421;28;20537;-89
2023/01/21 01:41:43;;;;;;;6.33;5.73;;;2.40;90.80;;;;;;5075719;28;20180;-89
2023/01/21 01:44:47;;;;;;;6.57;5.70;;;2.30;90.20;;;;;;5055749;28;20187;-87
2023/01/21 01:47:13;;;;;;;6.83;6.23;;;2.30;89.00;;;;;;5073753;28;20199;-89
2023/01/21 01:49:39;;;;;;;7.63;6.00;;;2.30;88.30;;;;;;5074659;28;20184;-89
2023/01/21 01:52:07;;;;;;;8.67;6.30;;;2.20;88.60;;;;;;5075801;28;20214;-89
2023/01/21 01:54:38;;;;;;;6.80;6.17;;;2.20;87.30;;;;;;5077634;28;20180;-89
2023/01/21 01:57:08;;;;;;;8.40;6.67;;;2.10;88.00;;;;;;5062258;28;20688;-89
2023/01/21 01:59:34;;;;;;;8.50;7.13;;;2.00;87.20;;;;;;5082265;28;20164;-88
2023/01/21 02:02:05;;;;;;;7.40;6.70;;;2.00;88.00;;;;;;5081958;28;20529;-89
2023/01/21 02:04:36;;;;;;;7.37;6.50;;;1.90;86.40;;;;;;5082168;28;20270;-89
2023/01/21 02:07:03;;;;;;;6.93;6.23;;;1.90;88.70;;;;;;5083510;28;20284;-89
2023/01/21 02:09:28;;;;;;;7.43;6.73;;;2.00;89.00;;;;;;5084081;28;20213;-89
2023/01/21 02:11:57;;;;;;;7.80;7.00;;;2.00;88.50;;;;;;5064985;28;20660;-89
2023/01/21 02:14:22;;;;;;;7.40;6.70;;;2.00;87.90;;;;;;5082995;28;20208;-89
2023/01/21 02:17:06;;;;;;;8.20;7.40;;;1.90;85.70;;;;;;5065052;28;20210;-90
2023/01/21 02:19:37;;;;;;;8.47;6.93;;;1.80;86.50;;;;;;5084048;28;20275;-90
2023/01/21 02:22:19;;;;;;;7.47;6.77;;;1.80;87.60;;;;;;5082589;28;20243;-88
2023/01/21 02:25:05;;;;;;;7.73;6.87;;;1.80;89.30;;;;;;5083561;28;20172;-88
2023/01/21 02:27:50;;;;;;;8.10;7.30;;;1.90;87.80;;;;;;5083290;28;20192;-90
2023/01/21 02:30:37;;;;;;;8.60;7.70;;;1.90;86.50;;;;;;5065027;28;20176;-89
2023/01/21 02:33:26;;;;;;;9.07;8.07;;;1.90;87.80;;;;;;5081853;28;20163;-89
2023/01/21 02:36:16;;;;;;;9.63;8.43;;;1.80;86.70;;;;;;5083207;28;20203;-89
2023/01/21 02:38:57;;;;;;;8.03;7.23;;;1.90;87.40;;;;;;5063841;28;20210;-89
2023/01/21 02:41:47;;;;;;;9.03;8.07;;;1.90;88.40;;;;;;5081421;28;20168;-89
2023/01/21 02:44:20;;;;;;;10.40;8.07;;;1.80;86.70;;;;;;5083407;28;20174;-89
2023/01/21 02:46:53;;;;;;;9.13;7.27;;;1.80;86.50;;;;;;5081249;28;20183;-89
2023/01/21 02:49:38;;;;;;;9.10;7.57;;;1.80;88.10;;;;;;5072900;28;20266;-91
2023/01/21 02:52:03;;;;;;;8.37;7.57;;;1.70;87.80;;;;;;5065285;28;20298;-89
2023/01/21 02:54:38;;;;;;;8.87;7.90;;;1.70;87.90;;;;;;5050479;28;20183;-90
2023/01/21 02:57:11;;;;;;;7.73;6.93;;;1.70;86.20;;;;;;5064841;28;20213;-91
2023/01/21 02:59:39;;;;;;;8.33;7.33;;;1.70;86.00;;;;;;5082135;28;20684;-90
2023/01/21 03:02:19;;;;;;;9.53;7.60;;;1.70;86.60;;;;;;5082084;28;20184;-88
2023/01/21 03:05:43;;;;;;;8.67;7.77;;;1.70;86.90;;;;;;5082389;28;20179;-89
2023/01/21 03:08:21;;;;;;;10.77;7.60;;;1.60;86.80;;;;;;5058108;28;20234;-90
2023/01/21 03:11:00;;;;;;;9.40;8.10;;;1.50;86.90;;;;;;5082101;28;20187;-89
2023/01/21 03:19:11;;;;;;;9.07;7.80;;;1.40;87.80;;;;;;5082456;28;20192;-87
2023/01/21 03:21:37;;;;;;;10.30;8.63;;;1.40;88.70;;;;;;5082527;28;20164;-89
2023/01/21 03:24:05;;;;;;;9.43;7.70;;;1.40;88.40;;;;;;5082471;28;20183;-88
2023/01/21 03:26:41;;;;;;;8.03;7.27;;;1.40;88.10;;;;;;5082260;28;20782;-89
2023/01/21 03:29:14;;;;;;;11.10;8.80;;;1.40;87.50;;;;;;5081618;28;20205;-91
2023/01/21 03:31:44;;;;;;;9.73;8.37;;;1.30;88.20;;;;;;5083256;28;20160;-88
2023/01/21 03:34:13;;;;;;;9.50;7.90;;;1.20;87.10;;;;;;5082401;28;20214;-89
2023/01/21 03:37:20;;;;;;;10.87;8.00;;;1.20;85.70;;;;;;5080610;28;20206;-90
2023/01/21 03:39:51;;;;;;;8.73;7.73;;;1.10;86.30;;;;;;5033712;28;20183;-90
2023/01/21 03:42:17;;;;;;;9.27;7.73;;;1.00;86.90;;;;;;5063915;28;20258;-89
2023/01/21 03:44:44;;;;;;;8.83;7.80;;;1.00;87.40;;;;;;5080183;28;20171;-89
2023/01/21 03:47:30;;;;;;;9.43;7.77;;;1.00;86.80;;;;;;5081214;28;20241;-90
2023/01/21 03:50:18;;;;;;;8.57;7.60;;;1.00;86.70;;;;;;5080992;28;20160;-90
2023/01/21 03:52:44;;;;;;;8.83;7.70;;;1.00;87.50;;;;;;5081748;28;20209;-89
2023/01/21 03:55:12;;;;;;;10.10;7.77;;;1.00;86.70;;;;;;5081536;28;20691;-90
2023/01/21 03:57:38;;;;;;;10.93;7.57;;;0.90;86.30;;;;;;5082237;28;20188;-89
2023/01/21 04:00:06;;;;;;;9.63;8.37;;;0.90;86.60;;;;;;5081192;28;20176;-88
2023/01/21 04:02:31;;;;;;;8.53;7.73;;;0.80;86.80;;;;;;5081797;28;20239;-90
2023/01/21 04:04:57;;;;;;;7.90;7.20;;;0.80;88.10;;;;;;5082510;28;20200;-91
2023/01/21 04:07:23;;;;;;;9.20;8.23;;;0.70;87.40;;;;;;5082769;28;20248;-89
2023/01/21 04:09:49;;;;;;;9.63;8.70;;;0.70;87.20;;;;;;5065115;28;20176;-90
2023/01/21 04:12:15;;;;;;;8.37;7.50;;;0.60;87.80;;;;;;5082629;28;20181;-90
2023/01/21 04:14:40;;;;;;;8.90;8.00;;;0.70;88.70;;;;;;5083518;28;20187;-90
2023/01/21 04:17:06;;;;;;;8.30;7.40;;;0.60;87.30;;;;;;5068852;28;20211;-89
2023/01/21 04:19:32;;;;;;;9.23;8.20;;;0.60;87.60;;;;;;5082418;28;20171;-89
2023/01/21 04:21:57;;;;;;;8.73;7.83;;;0.60;88.70;;;;;;5082859;28;20244;-90
2023/01/21 04:24:23;;;;;;;12.03;9.37;;;0.60;87.60;;;;;;5082903;28;20306;-89
2023/01/21 04:26:49;;;;;;;8.87;7.97;;;0.40;87.10;;;;;;5083264;28;20183;-89
2023/01/21 04:29:16;;;;;;;10.30;7.83;;;0.30;87.90;;;;;;5082445;28;20187;-89
2023/01/21 04:31:42;;;;;;;9.60;8.60;;;0.30;88.40;;;;;;5082184;28;20180;-89
2023/01/21 04:34:08;;;;;;;8.73;7.90;;;0.20;88.30;;;;;;5082579;28;20183;-90
2023/01/21 04:36:33;;;;;;;10.87;8.63;;;0.30;89.50;;;;;;5082051;28;20223;-89
2023/01/21 04:38:59;;;;;;;8.33;7.43;;;0.30;88.80;;;;;;5081782;28;20179;-89
2023/01/21 04:41:25;;;;;;;7.97;7.13;;;0.20;89.20;;;;;;5071855;28;20186;-88
2023/01/21 04:43:51;;;;;;;9.50;7.97;;;0.30;90.10;;;;;;5061507;28;20268;-89
2023/01/21 04:46:16;;;;;;;8.27;7.47;;;0.40;89.20;;;;;;5061626;28;20172;-90
2023/01/21 04:48:42;;;;;;;9.93;8.57;;;0.40;88.20;;;;;;5062953;28;20708;-89
2023/01/21 04:51:08;;;;;;;8.60;7.47;;;0.40;88.10;;;;;;5062655;28;20185;-89
2023/01/21 04:53:34;;;;;;;8.37;7.57;;;0.40;88.20;;;;;;5044939;28;20180;-89
2023/01/21 04:55:59;;;;;;;9.97;8.20;;;0.40;88.00;;;;;;5078429;28;20223;-89
2023/01/21 04:58:26;;;;;;;11.40;8.23;;;0.50;88.60;;;;;;5082842;28;20203;-89
2023/01/21 05:00:53;;;;;;;9.03;7.30;;;0.50;86.40;;;;;;5082793;28;20191;-90
2023/01/21 05:03:19;;;;;;;9.93;8.40;;;0.40;84.70;;;;;;5083074;28;20199;-89
2023/01/21 05:05:45;;;;;;;8.70;7.60;;;0.50;84.80;;;;;;5065432;28;20191;-90
2023/01/21 05:08:11;;;;;;;8.83;7.93;;;0.40;84.60;;;;;;5084820;28;20284;-90
2023/01/21 05:10:36;;;;;;;8.87;7.97;;;0.50;83.50;;;;;;5064812;28;20633;-89
2023/01/21 05:13:02;;;;;;;9.93;8.30;;;0.50;84.20;;;;;;5083124;28;20199;-88
2023/01/21 05:15:28;;;;;;;7.87;7.17;;;0.60;84.50;;;;;;5082856;28;20209;-89
2023/01/21 05:17:54;;;;;;;10.03;7.87;;;0.50;84.60;;;;;;5083007;28;20195;-89
2023/01/21 05:20:19;;;;;;;9.67;8.30;;;0.50;83.50;;;;;;5082691;28;20179;-88
2023/01/21 05:22:46;;;;;;;8.90;7.93;;;0.40;83.30;;;;;;5083082;28;20701;-89
2023/01/21 05:25:12;;;;;;;9.90;7.90;;;0.40;83.90;;;;;;5082006;28;20555;-88
2023/01/21 05:27:38;;;;;;;10.57;7.77;;;0.30;85.20;;;;;;5064222;28;20264;-89
2023/01/21 05:30:05;;;;;;;9.77;7.73;;;0.30;85.20;;;;;;5081498;28;20175;-90
2023/01/21 05:32:30;;;;;;;8.43;7.50;;;0.20;85.40;;;;;;5067537;28;20171;-88
2023/01/21 05:34:56;;;;;;;10.60;8.30;;;0.10;86.10;;;;;;5085698;28;20213;-88
2023/01/21 05:37:22;;;;;;;8.20;7.40;;;0.00;86.90;;;;;;5085735;28;20257;-88
2023/01/21 05:39:48;;;;;;;8.37;7.43;;;0.00;87.80;;;;;;5085645;28;20281;-89
2023/01/21 05:42:13;;;;;;;10.37;8.33;;;0.00;88.50;;;;;;5068769;28;20180;-88
2023/01/21 05:44:39;;;;;;;9.63;8.63;;;0.00;88.40;;;;;;5066034;28;20184;-89
2023/01/21 05:47:06;;;;;;;9.70;8.43;;;0.00;89.50;;;;;;5067996;28;20204;-89
2023/01/21 05:49:32;;;;;;;10.80;9.53;;;0.00;89.70;;;;;;5086795;28;20184;-88
2023/01/21 05:51:57;;;;;;;9.20;8.30;;;0.00;89.90;;;;;;5086366;28;20187;-88
2023/01/21 05:54:23;;;;;;;10.30;9.30;;;0.10;90.20;;;;;;5087042;28;20507;-88
2023/01/21 05:56:49;;;;;;;12.00;10.07;;;0.00;90.10;;;;;;5068462;28;20227;-88
2023/01/21 05:59:14;;;;;;;11.87;10.63;;;0.00;91.00;;;;;;5087444;28;20186;-89
2023/01/21 06:01:40;;;;;;;12.13;10.83;;;-0.10;92.10;;;;;;5086439;28;20182;-87
2023/01/21 06:04:06;;;;;;;14.10;12.57;;;-0.10;93.10;;;;;;5068798;28;20179;-89
2023/01/21 06:06:31;;;;;;;13.43;12.03;;;-0.10;93.70;;;;;;5068166;28;20184;-88
2023/01/21 06:08:57;;;;;;;14.83;12.83;;;-0.20;94.40;;;;;;5086481;28;20210;-89
2023/01/21 06:11:23;;;;;;;17.57;13.30;;;-0.30;95.10;;;;;;5085980;28;20180;-88
2023/01/21 06:13:49;;;;;;;17.80;13.83;;;-0.40;95.90;;;;;;5085633;28;20599;-89
2023/01/21 06:16:15;;;;;;;20.17;15.27;;;-0.40;96.70;;;;;;5084795;28;20210;-90
2023/01/21 06:18:40;;;;;;;18.67;15.23;;;-0.50;97.30;;;;;;5065357;28;20203;-90
2023/01/21 06:21:06;;;;;;;20.17;16.23;;;-0.50;97.70;;;;;;5044837;28;20226;-90
2023/01/21 06:23:32;;;;;;;19.30;16.20;;;-0.60;97.80;;;;;;5077099;28;20179;-90
2023/01/21 06:26:01;;;;;;;19.90;17.73;;;-0.70;98.50;;;;;;5059576;28;20207;-89
2023/01/21 06:28:27;;;;;;;21.50;17.17;;;-0.70;98.20;;;;;;5060918;28;20220;-90
2023/01/21 06:30:53;;;;;;;20.20;16.70;;;-0.70;98.70;;;;;;5060430;28;20266;-91
2023/01/21 06:33:19;;;;;;;21.77;18.47;;;-0.70;98.80;;;;;;5078397;28;20176;-92
2023/01/21 06:35:45;;;;;;;22.80;17.83;;;-0.80;99.60;;;;;;5090818;28;20200;-92
2023/01/21 06:38:10;;;;;;;21.10;17.40;;;-0.80;98.80;;;;;;5098212;28;20188;-91
2023/01/21 06:40:36;;;;;;;21.43;18.40;;;-0.80;98.90;;;;;;5098305;28;20251;-92
2023/01/21 06:43:02;;;;;;;19.67;16.57;;;-0.80;99.30;;;;;;5097153;28;20184;-91
2023/01/21 06:45:27;;;;;;;24.40;19.53;;;-0.80;99.90;;;;;;5082372;28;20190;-90
2023/01/21 06:47:53;;;;;;;24.00;18.67;;;-0.70;99.90;;;;;;5081591;28;20295;-90
2023/01/21 06:50:19;;;;;;;30.63;25.13;;;-0.70;98.40;;;;;;5084378;28;20208;-91
2023/01/21 06:52:46;;;;;;;24.37;20.60;;;-0.70;98.70;;;;;;5082464;28;20207;-90
2023/01/21 06:55:12;;;;;;;24.27;19.40;;;-0.90;98.20;;;;;;5082098;28;20182;-91
2023/01/21 06:57:39;;;;;;;22.40;19.07;;;-1.00;99.50;;;;;;5082972;28;20192;-90
2023/01/21 07:00:06;;;;;;;26.73;21.37;;;-1.10;99.70;;;;;;5083852;28;20176;-91
2023/01/21 07:02:31;;;;;;;19.40;16.13;;;-1.10;99.90;;;;;;5084844;28;20293;-91
2023/01/21 07:04:57;;;;;;;16.77;14.20;;;-1.10;99.90;;;;;;5082103;28;20344;-89
2023/01/21 07:07:23;;;;;;;15.37;13.77;;;-1.20;99.90;;;;;;5082703;28;20239;-89
2023/01/21 07:09:48;;;;;;;23.23;18.67;;;-1.10;99.90;;;;;;5083604;28;20238;-90
2023/01/21 07:12:14;;;;;;;22.43;16.03;;;-1.20;99.90;;;;;;5063500;28;20175;-90
2023/01/21 07:14:40;;;;;;;18.53;14.67;;;-1.20;99.90;;;;;;5075027;28;20175;-89
2023/01/21 07:17:05;;;;;;;15.73;13.37;;;-1.10;99.90;;;;;;5074531;28;20289;-90
2023/01/21 07:19:31;;;;;;;17.13;14.63;;;-1.20;99.90;;;;;;5074339;28;20171;-91
2023/01/21 07:21:56;;;;;;;17.43;14.20;;;-1.10;99.90;;;;;;5074060;28;20183;-90
2023/01/21 07:24:22;;;;;;;18.60;14.27;;;-1.20;99.90;;;;;;5073645;28;20329;-88
2023/01/21 07:26:47;;;;;;;20.30;13.70;;;-1.30;99.90;;;;;;5072839;28;20183;-91
2023/01/21 07:29:13;;;;;;;18.37;14.03;;;-1.20;99.90;;;;;;5065748;28;20881;-89
2023/01/21 07:31:39;;;;;;;16.10;13.67;;;-1.10;99.90;;;;;;5057749;28;20533;-90
2023/01/21 07:34:05;;;;;;;17.43;14.03;;;-1.00;99.90;;;;;;5037046;28;20241;-90
2023/01/21 07:36:31;;;;;;;15.97;12.67;;;-1.00;99.90;;;;;;5054928;28;20227;-92
2023/01/21 07:38:57;;;;;;;17.67;13.43;;;-0.90;99.90;;;;;;5055130;28;20192;-89
2023/01/21 07:41:23;;;;;;;20.10;15.37;;;-0.90;99.90;;;;;;5069709;28;20176;-90
2023/01/21 07:43:49;;;;;;;17.67;13.43;;;-0.80;99.30;;;;;;5074870;28;20202;-87
2023/01/21 07:46:16;;;;;;;14.67;12.17;;;-0.70;99.50;;;;;;5075722;28;20266;-90
2023/01/21 07:48:41;;;;;;;15.60;13.00;;;-0.80;98.60;;;;;;5075235;28;20633;-90
2023/01/21 07:51:07;;;;;;;14.40;12.30;;;-0.70;99.00;;;;;;5074484;28;20214;-90
2023/01/21 07:53:33;;;;;;;15.70;12.37;;;-0.60;98.90;;;;;;5073651;28;20214;-90
2023/01/21 07:56:03;;;;;;;14.03;12.53;;;-0.50;98.70;;;;;;5075839;28;20211;-90
2023/01/21 07:58:29;;;;;;;13.97;11.33;;;-0.50;97.70;;;;;;5073952;28;20243;-91
2023/01/21 08:00:54;;;;;;;14.33;10.93;;;-0.60;97.40;;;;;;5074706;28;20184;-90
2023/01/21 08:03:22;;;;;;;15.23;12.07;;;-0.50;97.80;;;;;;5074134;28;20247;-90
2023/01/21 08:05:49;;;;;;;16.73;13.93;;;-0.50;98.70;;;;;;5073749;28;20186;-90
2023/01/21 08:08:15;;;;;;;15.30;11.40;;;-0.30;99.10;;;;;;5076136;28;20207;-90
2023/01/21 08:10:40;;;;;;;13.87;11.87;;;-0.20;96.70;;;;;;5055931;28;20629;-90
2023/01/21 08:13:06;;;;;;;15.70;12.40;;;-0.20;95.30;;;;;;5073372;28;20190;-89
2023/01/21 08:15:32;;;;;;;14.00;12.33;;;-0.30;95.80;;;;;;5073210;28;20230;-87
2023/01/21 08:17:58;;;;;;;19.50;13.73;;;-0.30;96.90;;;;;;5067451;28;20588;-90
2023/01/21 08:20:23;;;;;;;15.93;13.27;;;-0.20;96.90;;;;;;5071477;28;20299;-89
2023/01/21 08:22:49;;;;;;;18.40;12.77;;;-0.10;97.00;;;;;;5072233;28;20557;-90
2023/01/21 08:25:15;;;;;;;16.37;12.60;;;0.00;94.70;;;;;;5053528;28;20211;-91
2023/01/21 08:27:41;;;;;;;15.10;12.50;;;0.00;95.10;;;;;;5064517;28;20223;-90
2023/01/21 08:30:07;;;;;;;17.07;13.33;;;-0.20;94.70;;;;;;5055104;28;20172;-90
2023/01/21 08:32:33;;;;;;;15.93;12.40;;;-0.20;95.30;;;;;;5073205;28;20580;-89
2023/01/21 08:34:58;;;;;;;14.50;12.20;;;-0.20;95.80;;;;;;5074008;28;20174;-90
2023/01/21 08:37:24;;;;;;;19.67;11.90;;;-0.10;95.70;;;;;;5056512;28;20249;-90
2023/01/21 08:39:50;;;;;;;17.63;12.23;;;-0.10;94.80;;;;;;5068523;28;20179;-90
2023/01/21 08:42:15;;;;;;;15.90;11.93;;;-0.20;95.00;;;;;;5072046;28;20705;-90
2023/01/21 08:44:41;;;;;;;13.50;11.43;;;-0.20;95.60;;;;;;5073135;28;20178;-90
2023/01/21 08:47:06;;;;;;;16.67;12.57;;;-0.30;95.50;;;;;;5075788;28;20203;-89
2023/01/21 08:49:32;;;;;;;16.23;12.17;;;-0.30;95.50;;;;;;5075442;28;20245;-88
2023/01/21 08:51:57;;;;;;;16.10;11.37;;;-0.30;95.60;;;;;;5075870;28;20198;-90
2023/01/21 08:54:23;;;;;;;14.20;11.17;;;-0.30;95.70;;;;;;5059397;28;20278;-89
2023/01/21 08:56:49;;;;;;;13.63;11.20;;;-0.40;95.60;;;;;;5057870;28;20251;-89
2023/01/21 08:59:14;;;;;;;14.00;11.37;;;-0.30;96.00;;;;;;5076639;28;20179;-89
2023/01/21 09:01:40;;;;;;;13.03;11.37;;;-0.20;95.60;;;;;;5076560;28;20168;-89
2023/01/21 09:04:07;;;;;;;17.87;12.90;;;-0.20;95.20;;;;;;5076758;28;20179;-89
2023/01/21 09:06:33;;;;;;;16.53;13.10;;;-0.30;94.80;;;;;;5075107;28;20195;-89
2023/01/21 09:08:58;;;;;;;19.13;16.13;;;-0.30;96.10;;;;;;5058113;28;20644;-88
2023/01/21 09:11:26;;;;;;;15.83;12.33;;;-0.30;96.70;;;;;;5076267;28;20553;-89
2023/01/21 09:13:52;;;;;;;19.17;15.87;;;-0.30;96.80;;;;;;5076746;28;20183;-90
2023/01/21 09:16:20;;;;;;;18.27;13.93;;;-0.20;97.00;;;;;;5074419;28;20203;-90
2023/01/21 09:18:46;;;;;;;21.37;15.20;;;-0.20;96.90;;;;;;5074656;28;20187;-88
2023/01/21 09:21:12;;;;;;;22.07;15.97;;;-0.30;97.90;;;;;;5073678;28;20274;-90
2023/01/21 09:23:39;;;;;;;20.47;14.60;;;-0.20;98.00;;;;;;5063120;28;20183;-90
2023/01/21 09:26:12;;;;;;;21.50;15.17;;;-0.10;96.70;;;;;;5071028;28;20183;-89
2023/01/21 09:28:41;;;;;;;17.50;14.20;;;-0.10;96.20;;;;;;5073109;28;20218;-89
2023/01/21 09:31:10;;;;;;;19.87;14.20;;;-0.10;96.60;;;;;;5073841;28;20186;-89
2023/01/21 09:33:39;;;;;;;17.17;14.13;;;-0.10;96.50;;;;;;5075452;28;20553;-90
2023/01/21 09:36:07;;;;;;;21.63;15.70;;;-0.20;96.80;;;;;;5075354;28;20200;-85
2023/01/21 09:38:33;;;;;;;21.90;15.40;;;-0.10;96.90;;;;;;5073009;28;20595;-90
2023/01/21 09:41:22;;;;;;;20.30;16.23;;;-0.10;97.80;;;;;;5072385;28;20182;-90
2023/01/21 09:44:09;;;;;;;17.30;13.40;;;0.00;97.20;;;;;;5072713;28;20190;-90
2023/01/21 09:46:49;;;;;;;20.13;15.13;;;0.10;96.30;;;;;;5074278;28;20257;-88
2023/01/21 09:49:27;;;;;;;20.80;14.80;;;0.00;95.50;;;;;;5075343;28;20680;-88
2023/01/21 09:51:58;;;;;;;19.63;14.10;;;0.10;95.40;;;;;;5075414;28;20179;-91
2023/01/21 09:54:27;;;;;;;15.93;13.63;;;0.20;95.00;;;;;;5073178;28;20807;-90
2023/01/21 09:56:55;;;;;;;18.43;13.07;;;0.20;93.60;;;;;;5074041;28;20298;-90
2023/01/21 09:59:34;;;;;;;12.87;11.00;;;0.20;94.50;;;;;;5076585;28;20191;-90
2023/01/21 10:02:02;;;;;;;13.90;12.03;;;0.20;92.70;;;;;;5053324;28;20182;-90
2023/01/21 10:04:31;;;;;;;18.10;13.03;;;0.30;93.90;;;;;;5064944;28;20179;-90
2023/01/21 10:07:14;;;;;;;17.50;13.70;;;0.40;92.90;;;;;;5059768;28;20346;-88
2023/01/21 10:09:43;;;;;;;15.73;11.90;;;0.50;92.00;;;;;;5075778;28;20172;-90
2023/01/21 10:12:25;;;;;;;15.17;13.43;;;0.50;92.20;;;;;;5065692;28;20194;-89
2023/01/21 10:15:31;;;;;;;17.67;14.30;;;0.50;92.80;;;;;;5069891;28;20183;-89
2023/01/21 10:18:05;;;;;;;19.83;13.67;;;0.50;91.70;;;;;;5072097;28;20223;-88
2023/01/21 10:20:54;;;;;;;17.27;13.03;;;0.50;91.60;;;;;;5074306;28;20226;-90
2023/01/21 10:23:37;;;;;;;17.87;14.20;;;0.40;91.60;;;;;;5074148;28;20244;-89
2023/01/21 10:26:07;;;;;;;17.07;15.27;;;0.50;92.80;;;;;;5074381;28;20188;-88
2023/01/21 10:28:36;;;;;;;17.93;15.60;;;0.60;92.70;;;;;;5072357;28;20337;-90
2023/01/21 10:31:21;;;;;;;17.53;13.67;;;0.60;93.40;;;;;;5055212;28;20188;-89
2023/01/21 10:33:47;;;;;;;23.30;16.30;;;0.60;93.70;;;;;;5072802;28;20187;-89
2023/01/21 10:36:33;;;;;;;20.17;15.83;;;0.60;94.70;;;;;;5071982;28;20231;-89
2023/01/21 10:39:37;;;;;;;17.60;14.33;;;0.60;94.90;;;;;;5031126;28;20207;-89
2023/01/21 10:42:33;;;;;;;18.97;14.93;;;0.60;94.30;;;;;;5054127;28;20190;-89
2023/01/21 10:45:15;;;;;;;18.53;15.70;;;0.70;94.80;;;;;;5074020;28;20171;-89
2023/01/21 10:48:02;;;;;;;19.63;15.13;;;0.80;93.40;;;;;;5074310;28;20318;-89
2023/01/21 10:50:41;;;;;;;19.60;16.80;;;0.70;92.90;;;;;;5077082;28;20187;-90
2023/01/21 10:53:15;;;;;;;18.47;15.40;;;0.70;92.80;;;;;;5076548;28;20180;-90
2023/01/21 10:55:52;;;;;;;18.83;15.73;;;0.80;92.90;;;;;;5074498;28;20695;-87
2023/01/21 10:58:40;;;;;;;23.73;18.93;;;1.00;91.20;;;;;;5074146;28;20681;-89
2023/01/21 11:01:15;;;;;;;18.27;15.03;;;1.00;90.70;;;;;;5073238;28;20249;-91
2023/01/21 11:03:47;;;;;;;22.53;16.47;;;0.80;91.80;;;;;;5075300;28;20174;-89
2023/01/21 11:06:16;;;;;;;23.37;17.60;;;0.80;92.20;;;;;;5075710;28;20183;-88
2023/01/21 11:08:45;;;;;;;21.90;17.37;;;0.50;92.30;;;;;;5074817;28;20223;-89
2023/01/21 11:11:12;;;;;;;20.50;16.43;;;0.60;93.10;;;;;;5074787;28;20278;-88
2023/01/21 11:13:40;;;;;;;23.03;17.90;;;0.60;93.00;;;;;;5075487;28;20624;-89
2023/01/21 11:16:06;;;;;;;51.70;37.63;;;0.80;93.80;;;;;;5075610;28;20230;-88
2023/01/21 11:18:40;;;;;;;58.67;41.10;;;0.90;91.20;;;;;;5074572;28;20198;-89
2023/01/21 11:21:17;;;;;;;23.63;17.10;;;0.80;89.50;;;;;;5074736;28;20176;-89
2023/01/21 11:23:53;;;;;;;21.40;15.57;;;0.80;90.20;;;;;;5074701;28;20175;-88
2023/01/21 11:26:23;;;;;;;20.43;16.30;;;0.70;90.60;;;;;;5075530;28;20249;-90
2023/01/21 11:29:14;;;;;;;19.57;15.90;;;0.90;92.10;;;;;;5074232;28;20701;-90
2023/01/21 11:31:43;;;;;;;25.97;16.63;;;1.30;89.70;;;;;;5074891;28;20458;-90
2023/01/21 11:34:21;;;;;;;22.57;16.83;;;1.60;87.70;;;;;;5074803;28;20199;-89
2023/01/21 11:37:04;;;;;;;22.07;15.93;;;1.80;86.10;;;;;;5074871;28;20211;-89
2023/01/21 11:39:37;;;;;;;16.83;14.87;;;1.60;85.10;;;;;;5076186;28;20187;-90
2023/01/21 11:42:23;;;;;;;20.50;15.57;;;1.30;87.70;;;;;;5076570;28;20180;-88
2023/01/21 11:44:53;;;;;;;23.23;16.13;;;1.00;88.80;;;;;;5076509;28;20278;-88
2023/01/21 11:47:46;;;;;;;18.97;16.00;;;1.00;90.10;;;;;;5076834;28;20191;-89
2023/01/21 11:50:14;;;;;;;20.40;15.90;;;1.00;89.60;;;;;;5065346;28;20207;-89
2023/01/21 11:52:40;;;;;;;17.27;15.17;;;1.00;90.00;;;;;;5055260;28;20215;-89
2023/01/21 11:55:25;;;;;;;20.27;16.57;;;1.00;90.00;;;;;;5060908;28;20610;-89
2023/01/21 11:57:54;;;;;;;21.20;16.33;;;1.10;89.10;;;;;;5055785;28;20266;-89
2023/01/21 12:00:22;;;;;;;21.30;16.23;;;1.00;90.10;;;;;;5053219;28;20192;-89
2023/01/21 12:02:55;;;;;;;22.57;16.73;;;1.00;89.70;;;;;;5060249;28;20276;-90
2023/01/21 12:05:31;;;;;;;22.80;16.27;;;1.00;89.00;;;;;;5067446;28;20183;-90
2023/01/21 12:08:00;;;;;;;20.23;16.03;;;0.80;90.40;;;;;;5064181;28;20199;-90
2023/01/21 12:10:41;;;;;;;19.50;16.67;;;0.80;90.20;;;;;;5060039;28;20188;-89
2023/01/21 12:13:19;;;;;;;21.40;16.53;;;0.70;90.00;;;;;;5039893;28;20176;-89
2023/01/21 12:16:22;;;;;;;22.40;17.83;;;0.60;90.70;;;;;;5068165;28;20210;-90
2023/01/21 12:19:06;;;;;;;24.17;17.77;;;0.50;92.00;;;;;;5063768;28;20195;-89
2023/01/21 12:22:06;;;;;;;25.77;17.70;;;0.40;92.40;;;;;;5064049;28;20184;-90
2023/01/21 12:24:50;;;;;;;21.60;18.43;;;0.40;93.00;;;;;;5067768;28;20183;-89
2023/01/21 12:27:28;;;;;;;22.57;17.17;;;0.50;93.10;;;;;;5065692;28;20211;-89
2023/01/21 12:30:06;;;;;;;22.63;19.57;;;0.40;93.40;;;;;;5065025;28;20199;-90
2023/01/21 12:32:55;;;;;;;20.00;15.90;;;0.40;94.00;;;;;;5065913;28;20202;-89
2023/01/21 12:35:45;;;;;;;26.33;19.27;;;0.30;94.50;;;;;;5065385;28;20184;-90
2023/01/21 12:38:24;;;;;;;25.60;17.60;;;0.20;95.40;;;;;;5045307;28;20207;-89
2023/01/21 12:40:55;;;;;;;24.60;17.70;;;0.30;95.30;;;;;;5050074;28;20527;-89
2023/01/21 12:43:49;;;;;;;27.13;17.23;;;0.30;95.60;;;;;;5059775;28;20183;-87
2023/01/21 12:46:17;;;;;;;24.00;17.67;;;0.30;95.80;;;;;;5057952;28;20232;-90
2023/01/21 12:48:50;;;;;;;22.87;16.33;;;0.20;95.70;;;;;;5060390;28;20203;-92
2023/01/21 12:51:31;;;;;;;20.63;15.87;;;0.30;95.40;;;;;;5071954;28;20271;-92
2023/01/21 12:54:34;;;;;;;21.50;15.60;;;0.20;95.80;;;;;;5078231;28;20175;-92
2023/01/21 12:57:24;;;;;;;21.83;15.93;;;0.20;96.90;;;;;;5078555;28;20273;-91
2023/01/21 13:00:01;;;;;;;21.87;15.80;;;0.20;97.10;;;;;;5063059;28;20172;-90
2023/01/21 13:03:09;;;;;;;23.10;16.93;;;0.10;97.20;;;;;;5044389;28;20211;-89
2023/01/21 13:05:52;;;;;;;23.73;15.33;;;0.20;97.00;;;;;;5006052;28;20367;-89
2023/01/21 13:08:26;;;;;;;22.73;16.37;;;0.30;96.20;;;;;;5058945;28;20235;-90